sensor_id;sensor_type;location;lat;lon;timestamp;P1;durP1;ratioP1;P2;durP2;ratioP2
66669;SDS011;53568;52.164;4.472;2023-12-22T00:01:23;13.91;;;8.46;;
66669;SDS011;53568;52.164;4.472;2023-12-22T00:03:49;13.67;;;8.29;;
66669;SDS011;53568;52.164;4.472;2023-12-22T00:06:15;14.80;;;8.89;;
66669;SDS011;53568;52.164;4.472;2023-12-22T00:08:41;14.66;;;8.80;;
66669;SDS011;53568;52.164;4.472;2023-12-22T00:11:07;14.58;;;8.75;;
66669;SDS011;53568;52.164;4.472;2023-12-22T00:13:33;14.72;;;8.86;;
66669;SDS011;53568;52.164;4.472;2023-12-22T00:16:01;14.88;;;9.03;;
66669;SDS011;53568;52.164;4.472;2023-12-22T00:18:27;15.29;;;9.26;;
66669;SDS011;53568;52.164;4.472;2023-12-22T00:20:52;15.27;;;9.31;;
66669;SDS011;53568;52.164;4.472;2023-12-22T00:23:18;13.22;;;8.15;;
66669;SDS011;53568;52.164;4.472;2023-12-22T00:25:43;13.92;;;8.46;;
66669;SDS011;53568;52.164;4.472;2023-12-22T00:28:09;13.77;;;8.41;;
66669;SDS011;53568;52.164;4.472;2023-12-22T00:30:35;14.17;;;8.59;;
66669;SDS011;53568;52.164;4.472;2023-12-22T00:33:00;13.79;;;8.41;;
66669;SDS011;53568;52.164;4.472;2023-12-22T00:35:26;13.22;;;8.12;;
66669;SDS011;53568;52.164;4.472;2023-12-22T00:37:51;14.41;;;8.83;;
66669;SDS011;53568;52.164;4.472;2023-12-22T00:40:18;14.39;;;8.87;;
66669;SDS011;53568;52.164;4.472;2023-12-22T00:42:43;17.40;;;10.47;;
66669;SDS011;53568;52.164;4.472;2023-12-22T00:45:11;16.44;;;10.04;;
66669;SDS011;53568;52.164;4.472;2023-12-22T00:47:37;16.18;;;9.85;;
66669;SDS011;53568;52.164;4.472;2023-12-22T00:50:02;15.14;;;9.21;;
66669;SDS011;53568;52.164;4.472;2023-12-22T00:52:29;14.28;;;8.74;;
66669;SDS011;53568;52.164;4.472;2023-12-22T00:54:56;14.50;;;8.84;;
66669;SDS011;53568;52.164;4.472;2023-12-22T00:57:22;15.15;;;9.07;;
66669;SDS011;53568;52.164;4.472;2023-12-22T00:59:47;14.06;;;8.48;;
66669;SDS011;53568;52.164;4.472;2023-12-22T01:02:13;12.99;;;7.83;;
66669;SDS011;53568;52.164;4.472;2023-12-22T01:04:40;14.35;;;8.63;;
66669;SDS011;53568;52.164;4.472;2023-12-22T01:07:07;14.97;;;8.90;;
66669;SDS011;53568;52.164;4.472;2023-12-22T01:09:33;17.08;;;10.15;;
66669;SDS011;53568;52.164;4.472;2023-12-22T01:11:59;15.40;;;9.24;;
66669;SDS011;53568;52.164;4.472;2023-12-22T01:14:27;15.16;;;9.16;;
66669;SDS011;53568;52.164;4.472;2023-12-22T01:16:53;16.37;;;9.96;;
66669;SDS011;53568;52.164;4.472;2023-12-22T01:19:18;15.10;;;9.26;;
66669;SDS011;53568;52.164;4.472;2023-12-22T01:21:44;13.84;;;8.55;;
66669;SDS011;53568;52.164;4.472;2023-12-22T01:24:09;14.47;;;9.01;;
66669;SDS011;53568;52.164;4.472;2023-12-22T01:26:35;13.53;;;8.38;;
66669;SDS011;53568;52.164;4.472;2023-12-22T01:29:00;15.01;;;9.23;;
66669;SDS011;53568;52.164;4.472;2023-12-22T01:31:26;15.04;;;9.22;;
66669;SDS011;53568;52.164;4.472;2023-12-22T01:33:52;14.55;;;8.81;;
66669;SDS011;53568;52.164;4.472;2023-12-22T01:36:18;14.23;;;8.65;;
66669;SDS011;53568;52.164;4.472;2023-12-22T01:38:43;15.48;;;9.43;;
66669;SDS011;53568;52.164;4.472;2023-12-22T01:41:08;16.32;;;9.83;;
66669;SDS011;53568;52.164;4.472;2023-12-22T01:43:34;14.54;;;8.76;;
66669;SDS011;53568;52.164;4.472;2023-12-22T01:46:00;16.01;;;9.55;;
66669;SDS011;53568;52.164;4.472;2023-12-22T01:48:27;13.92;;;8.44;;
66669;SDS011;53568;52.164;4.472;2023-12-22T01:50:54;15.10;;;9.12;;
66669;SDS011;53568;52.164;4.472;2023-12-22T01:53:24;13.82;;;8.46;;
66669;SDS011;53568;52.164;4.472;2023-12-22T01:55:52;16.11;;;9.61;;
66669;SDS011;53568;52.164;4.472;2023-12-22T01:58:20;16.38;;;9.82;;
66669;SDS011;53568;52.164;4.472;2023-12-22T02:00:48;16.55;;;9.91;;
66669;SDS011;53568;52.164;4.472;2023-12-22T02:03:14;14.65;;;9.03;;
66669;SDS011;53568;52.164;4.472;2023-12-22T02:05:42;16.00;;;9.80;;
66669;SDS011;53568;52.164;4.472;2023-12-22T02:08:08;15.51;;;9.47;;
66669;SDS011;53568;52.164;4.472;2023-12-22T02:10:35;14.86;;;9.02;;
66669;SDS011;53568;52.164;4.472;2023-12-22T02:13:02;15.65;;;9.49;;
66669;SDS011;53568;52.164;4.472;2023-12-22T02:15:28;15.83;;;9.73;;
66669;SDS011;53568;52.164;4.472;2023-12-22T02:20:37;16.04;;;9.77;;
66669;SDS011;53568;52.164;4.472;2023-12-22T02:23:03;14.76;;;9.10;;
66669;SDS011;53568;52.164;4.472;2023-12-22T02:25:29;11.45;;;7.11;;
66669;SDS011;53568;52.164;4.472;2023-12-22T02:27:58;13.10;;;8.16;;
66669;SDS011;53568;52.164;4.472;2023-12-22T02:33:12;13.40;;;8.16;;
66669;SDS011;53568;52.164;4.472;2023-12-22T02:35:41;12.86;;;7.90;;
66669;SDS011;53568;52.164;4.472;2023-12-22T02:38:09;14.03;;;8.55;;
66669;SDS011;53568;52.164;4.472;2023-12-22T02:40:37;14.44;;;8.83;;
66669;SDS011;53568;52.164;4.472;2023-12-22T02:43:04;13.18;;;8.14;;
66669;SDS011;53568;52.164;4.472;2023-12-22T02:45:30;13.84;;;8.49;;
66669;SDS011;53568;52.164;4.472;2023-12-22T02:47:57;13.24;;;8.32;;
66669;SDS011;53568;52.164;4.472;2023-12-22T02:50:23;12.95;;;8.11;;
66669;SDS011;53568;52.164;4.472;2023-12-22T02:52:48;14.20;;;8.74;;
66669;SDS011;53568;52.164;4.472;2023-12-22T02:55:14;15.48;;;9.51;;
66669;SDS011;53568;52.164;4.472;2023-12-22T02:57:39;15.81;;;9.61;;
66669;SDS011;53568;52.164;4.472;2023-12-22T03:00:06;14.26;;;8.79;;
66669;SDS011;53568;52.164;4.472;2023-12-22T03:02:32;15.06;;;9.30;;
66669;SDS011;53568;52.164;4.472;2023-12-22T03:04:58;16.90;;;10.27;;
66669;SDS011;53568;52.164;4.472;2023-12-22T03:07:23;15.74;;;9.59;;
66669;SDS011;53568;52.164;4.472;2023-12-22T03:09:49;15.56;;;9.62;;
66669;SDS011;53568;52.164;4.472;2023-12-22T03:12:15;15.83;;;9.68;;
66669;SDS011;53568;52.164;4.472;2023-12-22T03:14:40;13.82;;;8.45;;
66669;SDS011;53568;52.164;4.472;2023-12-22T03:17:06;15.17;;;9.33;;
66669;SDS011;53568;52.164;4.472;2023-12-22T03:19:32;14.69;;;9.03;;
66669;SDS011;53568;52.164;4.472;2023-12-22T03:21:58;14.91;;;9.17;;
66669;SDS011;53568;52.164;4.472;2023-12-22T03:24:25;13.53;;;8.45;;
66669;SDS011;53568;52.164;4.472;2023-12-22T03:26:51;14.15;;;8.68;;
66669;SDS011;53568;52.164;4.472;2023-12-22T03:29:17;14.11;;;8.53;;
66669;SDS011;53568;52.164;4.472;2023-12-22T03:31:44;14.32;;;8.74;;
66669;SDS011;53568;52.164;4.472;2023-12-22T03:34:10;15.29;;;9.25;;
66669;SDS011;53568;52.164;4.472;2023-12-22T03:36:36;15.62;;;9.40;;
66669;SDS011;53568;52.164;4.472;2023-12-22T03:39:02;14.88;;;8.97;;
66669;SDS011;53568;52.164;4.472;2023-12-22T03:41:28;13.68;;;8.31;;
66669;SDS011;53568;52.164;4.472;2023-12-22T03:43:54;13.32;;;8.06;;
66669;SDS011;53568;52.164;4.472;2023-12-22T03:46:21;13.90;;;8.39;;
66669;SDS011;53568;52.164;4.472;2023-12-22T03:48:46;15.01;;;9.10;;
66669;SDS011;53568;52.164;4.472;2023-12-22T03:51:12;15.10;;;9.13;;
66669;SDS011;53568;52.164;4.472;2023-12-22T03:53:39;15.68;;;9.53;;
66669;SDS011;53568;52.164;4.472;2023-12-22T03:56:06;14.02;;;8.67;;
66669;SDS011;53568;52.164;4.472;2023-12-22T03:58:34;14.38;;;8.84;;
66669;SDS011;53568;52.164;4.472;2023-12-22T04:01:00;14.37;;;8.75;;
66669;SDS011;53568;52.164;4.472;2023-12-22T04:03:25;14.91;;;9.12;;
66669;SDS011;53568;52.164;4.472;2023-12-22T04:05:51;13.41;;;8.27;;
66669;SDS011;53568;52.164;4.472;2023-12-22T04:08:17;14.26;;;8.59;;
66669;SDS011;53568;52.164;4.472;2023-12-22T04:10:42;14.52;;;8.74;;
66669;SDS011;53568;52.164;4.472;2023-12-22T04:13:09;12.98;;;7.98;;
66669;SDS011;53568;52.164;4.472;2023-12-22T04:15:35;13.74;;;8.29;;
66669;SDS011;53568;52.164;4.472;2023-12-22T04:18:00;12.73;;;7.72;;
66669;SDS011;53568;52.164;4.472;2023-12-22T04:20:26;13.28;;;8.15;;
66669;SDS011;53568;52.164;4.472;2023-12-22T04:22:51;13.59;;;8.24;;
66669;SDS011;53568;52.164;4.472;2023-12-22T04:25:17;13.43;;;8.00;;
66669;SDS011;53568;52.164;4.472;2023-12-22T04:27:43;15.50;;;9.24;;
66669;SDS011;53568;52.164;4.472;2023-12-22T04:30:08;14.87;;;8.88;;
66669;SDS011;53568;52.164;4.472;2023-12-22T04:32:34;13.59;;;8.20;;
66669;SDS011;53568;52.164;4.472;2023-12-22T04:35:00;13.83;;;8.34;;
66669;SDS011;53568;52.164;4.472;2023-12-22T04:37:25;13.81;;;8.30;;
66669;SDS011;53568;52.164;4.472;2023-12-22T04:39:51;13.30;;;8.04;;
66669;SDS011;53568;52.164;4.472;2023-12-22T04:42:16;14.59;;;8.75;;
66669;SDS011;53568;52.164;4.472;2023-12-22T04:44:42;13.68;;;8.32;;
66669;SDS011;53568;52.164;4.472;2023-12-22T04:47:07;13.03;;;8.06;;
66669;SDS011;53568;52.164;4.472;2023-12-22T04:49:33;13.48;;;8.37;;
66669;SDS011;53568;52.164;4.472;2023-12-22T04:51:58;13.54;;;8.36;;
66669;SDS011;53568;52.164;4.472;2023-12-22T04:54:24;13.83;;;8.47;;
66669;SDS011;53568;52.164;4.472;2023-12-22T04:56:49;13.56;;;8.33;;
66669;SDS011;53568;52.164;4.472;2023-12-22T04:59:15;13.92;;;8.53;;
66669;SDS011;53568;52.164;4.472;2023-12-22T05:01:40;12.01;;;7.29;;
66669;SDS011;53568;52.164;4.472;2023-12-22T05:04:07;12.16;;;7.43;;
66669;SDS011;53568;52.164;4.472;2023-12-22T05:06:34;12.28;;;7.59;;
66669;SDS011;53568;52.164;4.472;2023-12-22T05:09:00;12.22;;;7.48;;
66669;SDS011;53568;52.164;4.472;2023-12-22T05:11:25;12.67;;;7.84;;
66669;SDS011;53568;52.164;4.472;2023-12-22T05:13:51;13.50;;;8.28;;
66669;SDS011;53568;52.164;4.472;2023-12-22T05:16:16;13.09;;;7.99;;
66669;SDS011;53568;52.164;4.472;2023-12-22T05:18:42;12.94;;;8.08;;
66669;SDS011;53568;52.164;4.472;2023-12-22T05:21:07;13.60;;;8.36;;
66669;SDS011;53568;52.164;4.472;2023-12-22T05:23:33;14.29;;;8.70;;
66669;SDS011;53568;52.164;4.472;2023-12-22T05:25:58;14.25;;;8.71;;
66669;SDS011;53568;52.164;4.472;2023-12-22T05:28:24;15.03;;;9.14;;
66669;SDS011;53568;52.164;4.472;2023-12-22T05:30:49;16.06;;;9.69;;
66669;SDS011;53568;52.164;4.472;2023-12-22T05:33:15;15.80;;;9.73;;
66669;SDS011;53568;52.164;4.472;2023-12-22T05:35:40;15.33;;;9.48;;
66669;SDS011;53568;52.164;4.472;2023-12-22T05:38:06;17.46;;;10.60;;
66669;SDS011;53568;52.164;4.472;2023-12-22T05:40:31;17.01;;;10.26;;
66669;SDS011;53568;52.164;4.472;2023-12-22T05:42:57;18.18;;;10.97;;
66669;SDS011;53568;52.164;4.472;2023-12-22T05:45:22;18.61;;;11.33;;
66669;SDS011;53568;52.164;4.472;2023-12-22T05:47:50;17.54;;;10.94;;
66669;SDS011;53568;52.164;4.472;2023-12-22T05:50:15;16.71;;;10.43;;
66669;SDS011;53568;52.164;4.472;2023-12-22T05:52:41;19.01;;;11.74;;
66669;SDS011;53568;52.164;4.472;2023-12-22T05:55:08;19.15;;;11.89;;
66669;SDS011;53568;52.164;4.472;2023-12-22T05:57:34;20.26;;;12.37;;
66669;SDS011;53568;52.164;4.472;2023-12-22T06:00:00;21.42;;;13.02;;
66669;SDS011;53568;52.164;4.472;2023-12-22T06:02:25;20.37;;;12.46;;
66669;SDS011;53568;52.164;4.472;2023-12-22T06:04:51;22.54;;;13.76;;
66669;SDS011;53568;52.164;4.472;2023-12-22T06:07:16;19.29;;;11.89;;
66669;SDS011;53568;52.164;4.472;2023-12-22T06:09:42;20.82;;;12.82;;
66669;SDS011;53568;52.164;4.472;2023-12-22T06:12:07;21.66;;;13.48;;
66669;SDS011;53568;52.164;4.472;2023-12-22T06:14:33;21.00;;;12.98;;
66669;SDS011;53568;52.164;4.472;2023-12-22T06:17:00;22.26;;;13.78;;
66669;SDS011;53568;52.164;4.472;2023-12-22T06:19:25;22.95;;;14.10;;
66669;SDS011;53568;52.164;4.472;2023-12-22T06:21:53;22.66;;;13.94;;
66669;SDS011;53568;52.164;4.472;2023-12-22T06:24:19;25.13;;;15.54;;
66669;SDS011;53568;52.164;4.472;2023-12-22T06:26:45;24.21;;;15.07;;
66669;SDS011;53568;52.164;4.472;2023-12-22T06:29:10;25.58;;;15.68;;
66669;SDS011;53568;52.164;4.472;2023-12-22T06:31:35;25.35;;;15.74;;
66669;SDS011;53568;52.164;4.472;2023-12-22T06:34:01;25.00;;;15.50;;
66669;SDS011;53568;52.164;4.472;2023-12-22T06:36:27;27.98;;;17.05;;
66669;SDS011;53568;52.164;4.472;2023-12-22T06:38:55;25.92;;;16.22;;
66669;SDS011;53568;52.164;4.472;2023-12-22T06:43:50;27.41;;;16.86;;
66669;SDS011;53568;52.164;4.472;2023-12-22T06:46:19;26.64;;;16.53;;
66669;SDS011;53568;52.164;4.472;2023-12-22T06:48:54;24.35;;;15.18;;
66669;SDS011;53568;52.164;4.472;2023-12-22T06:51:27;25.10;;;15.56;;
66669;SDS011;53568;52.164;4.472;2023-12-22T06:53:57;24.25;;;15.04;;
66669;SDS011;53568;52.164;4.472;2023-12-22T06:56:25;24.71;;;15.41;;
66669;SDS011;53568;52.164;4.472;2023-12-22T06:58:55;23.70;;;14.81;;
66669;SDS011;53568;52.164;4.472;2023-12-22T07:01:25;22.43;;;14.06;;
66669;SDS011;53568;52.164;4.472;2023-12-22T07:03:53;21.24;;;13.49;;
66669;SDS011;53568;52.164;4.472;2023-12-22T07:06:19;23.15;;;14.44;;
66669;SDS011;53568;52.164;4.472;2023-12-22T07:11:36;24.36;;;14.83;;
66669;SDS011;53568;52.164;4.472;2023-12-22T07:14:02;24.77;;;14.99;;
66669;SDS011;53568;52.164;4.472;2023-12-22T07:16:28;24.11;;;14.81;;
66669;SDS011;53568;52.164;4.472;2023-12-22T07:18:53;22.16;;;13.83;;
66669;SDS011;53568;52.164;4.472;2023-12-22T07:21:18;22.55;;;13.85;;
66669;SDS011;53568;52.164;4.472;2023-12-22T07:23:44;23.29;;;14.18;;
66669;SDS011;53568;52.164;4.472;2023-12-22T07:26:10;22.08;;;13.51;;
66669;SDS011;53568;52.164;4.472;2023-12-22T07:28:35;19.43;;;12.03;;
66669;SDS011;53568;52.164;4.472;2023-12-22T07:31:01;19.12;;;11.96;;
66669;SDS011;53568;52.164;4.472;2023-12-22T07:33:26;20.93;;;13.02;;
66669;SDS011;53568;52.164;4.472;2023-12-22T07:35:52;22.07;;;13.46;;
66669;SDS011;53568;52.164;4.472;2023-12-22T07:38:17;21.82;;;13.36;;
66669;SDS011;53568;52.164;4.472;2023-12-22T07:40:43;20.13;;;12.47;;
66669;SDS011;53568;52.164;4.472;2023-12-22T07:43:08;19.29;;;12.06;;
66669;SDS011;53568;52.164;4.472;2023-12-22T07:45:34;17.83;;;11.07;;
66669;SDS011;53568;52.164;4.472;2023-12-22T07:47:59;18.22;;;11.30;;
66669;SDS011;53568;52.164;4.472;2023-12-22T07:50:25;21.39;;;12.98;;
66669;SDS011;53568;52.164;4.472;2023-12-22T07:52:50;19.20;;;11.69;;
66669;SDS011;53568;52.164;4.472;2023-12-22T07:55:16;19.27;;;11.75;;
66669;SDS011;53568;52.164;4.472;2023-12-22T07:57:41;18.62;;;11.41;;
66669;SDS011;53568;52.164;4.472;2023-12-22T08:00:07;18.26;;;11.45;;
66669;SDS011;53568;52.164;4.472;2023-12-22T08:02:34;19.05;;;11.80;;
66669;SDS011;53568;52.164;4.472;2023-12-22T08:05:00;17.34;;;10.89;;
66669;SDS011;53568;52.164;4.472;2023-12-22T08:07:25;15.50;;;9.86;;
66669;SDS011;53568;52.164;4.472;2023-12-22T08:09:51;13.15;;;8.56;;
66669;SDS011;53568;52.164;4.472;2023-12-22T08:12:16;13.98;;;9.11;;
66669;SDS011;53568;52.164;4.472;2023-12-22T08:14:42;15.11;;;9.70;;
66669;SDS011;53568;52.164;4.472;2023-12-22T08:17:08;14.46;;;9.31;;
66669;SDS011;53568;52.164;4.472;2023-12-22T08:19:35;13.28;;;8.56;;
66669;SDS011;53568;52.164;4.472;2023-12-22T08:22:01;13.28;;;8.81;;
66669;SDS011;53568;52.164;4.472;2023-12-22T08:24:27;12.94;;;8.48;;
66669;SDS011;53568;52.164;4.472;2023-12-22T08:26:53;13.73;;;8.86;;
66669;SDS011;53568;52.164;4.472;2023-12-22T08:29:18;13.11;;;8.45;;
66669;SDS011;53568;52.164;4.472;2023-12-22T08:31:44;12.48;;;8.11;;
66669;SDS011;53568;52.164;4.472;2023-12-22T08:34:10;12.71;;;8.35;;
66669;SDS011;53568;52.164;4.472;2023-12-22T08:36:36;10.68;;;7.04;;
66669;SDS011;53568;52.164;4.472;2023-12-22T08:39:01;10.90;;;7.20;;
66669;SDS011;53568;52.164;4.472;2023-12-22T08:41:27;11.32;;;7.32;;
66669;SDS011;53568;52.164;4.472;2023-12-22T08:43:53;10.97;;;7.07;;
66669;SDS011;53568;52.164;4.472;2023-12-22T08:46:18;10.87;;;6.89;;
66669;SDS011;53568;52.164;4.472;2023-12-22T08:48:44;10.48;;;6.81;;
66669;SDS011;53568;52.164;4.472;2023-12-22T08:51:09;10.22;;;6.60;;
66669;SDS011;53568;52.164;4.472;2023-12-22T08:53:35;9.50;;;6.03;;
66669;SDS011;53568;52.164;4.472;2023-12-22T08:56:04;10.65;;;6.74;;
66669;SDS011;53568;52.164;4.472;2023-12-22T08:58:32;9.66;;;6.13;;
66669;SDS011;53568;52.164;4.472;2023-12-22T09:00:57;9.82;;;6.14;;
66669;SDS011;53568;52.164;4.472;2023-12-22T09:03:23;9.74;;;6.23;;
66669;SDS011;53568;52.164;4.472;2023-12-22T09:05:49;8.87;;;5.74;;
66669;SDS011;53568;52.164;4.472;2023-12-22T09:08:14;9.26;;;5.93;;
66669;SDS011;53568;52.164;4.472;2023-12-22T09:10:40;9.61;;;6.04;;
66669;SDS011;53568;52.164;4.472;2023-12-22T09:13:05;9.76;;;6.13;;
66669;SDS011;53568;52.164;4.472;2023-12-22T09:15:31;9.58;;;6.07;;
66669;SDS011;53568;52.164;4.472;2023-12-22T09:17:56;9.34;;;6.01;;
66669;SDS011;53568;52.164;4.472;2023-12-22T09:20:22;9.20;;;5.95;;
66669;SDS011;53568;52.164;4.472;2023-12-22T09:22:48;9.42;;;6.09;;
66669;SDS011;53568;52.164;4.472;2023-12-22T09:25:13;8.35;;;5.42;;
66669;SDS011;53568;52.164;4.472;2023-12-22T09:27:39;8.38;;;5.59;;
66669;SDS011;53568;52.164;4.472;2023-12-22T09:30:05;8.74;;;5.76;;
66669;SDS011;53568;52.164;4.472;2023-12-22T09:32:34;8.03;;;5.27;;
66669;SDS011;53568;52.164;4.472;2023-12-22T09:35:00;9.29;;;5.99;;
66669;SDS011;53568;52.164;4.472;2023-12-22T09:37:26;7.71;;;5.03;;
66669;SDS011;53568;52.164;4.472;2023-12-22T09:39:51;7.32;;;4.90;;
66669;SDS011;53568;52.164;4.472;2023-12-22T09:42:17;8.31;;;5.54;;
66669;SDS011;53568;52.164;4.472;2023-12-22T09:44:42;8.83;;;5.78;;
66669;SDS011;53568;52.164;4.472;2023-12-22T09:47:09;8.11;;;5.39;;
66669;SDS011;53568;52.164;4.472;2023-12-22T09:49:37;7.64;;;5.21;;
66669;SDS011;53568;52.164;4.472;2023-12-22T09:52:06;8.12;;;5.41;;
66669;SDS011;53568;52.164;4.472;2023-12-22T09:54:33;8.57;;;5.65;;
66669;SDS011;53568;52.164;4.472;2023-12-22T09:57:01;8.15;;;5.49;;
66669;SDS011;53568;52.164;4.472;2023-12-22T09:59:28;7.82;;;5.27;;
66669;SDS011;53568;52.164;4.472;2023-12-22T10:01:55;7.39;;;4.99;;
66669;SDS011;53568;52.164;4.472;2023-12-22T10:04:24;7.22;;;4.86;;
66669;SDS011;53568;52.164;4.472;2023-12-22T10:06:49;7.84;;;5.27;;
66669;SDS011;53568;52.164;4.472;2023-12-22T10:09:18;8.74;;;5.84;;
66669;SDS011;53568;52.164;4.472;2023-12-22T10:11:44;8.40;;;5.62;;
66669;SDS011;53568;52.164;4.472;2023-12-22T10:14:17;8.82;;;5.90;;
66669;SDS011;53568;52.164;4.472;2023-12-22T10:16:50;7.94;;;5.45;;
66669;SDS011;53568;52.164;4.472;2023-12-22T10:19:19;7.54;;;5.20;;
66669;SDS011;53568;52.164;4.472;2023-12-22T10:21:45;8.18;;;5.60;;
66669;SDS011;53568;52.164;4.472;2023-12-22T10:27:04;7.64;;;5.21;;
66669;SDS011;53568;52.164;4.472;2023-12-22T10:29:31;8.25;;;5.48;;
66669;SDS011;53568;52.164;4.472;2023-12-22T10:31:58;8.93;;;5.92;;
66669;SDS011;53568;52.164;4.472;2023-12-22T10:34:26;8.27;;;5.45;;
66669;SDS011;53568;52.164;4.472;2023-12-22T10:36:54;8.33;;;5.43;;
66669;SDS011;53568;52.164;4.472;2023-12-22T10:39:20;8.93;;;5.79;;
66669;SDS011;53568;52.164;4.472;2023-12-22T10:41:47;10.01;;;6.49;;
66669;SDS011;53568;52.164;4.472;2023-12-22T10:44:14;8.85;;;5.78;;
66669;SDS011;53568;52.164;4.472;2023-12-22T10:46:42;8.12;;;5.36;;
66669;SDS011;53568;52.164;4.472;2023-12-22T10:49:08;9.18;;;6.08;;
66669;SDS011;53568;52.164;4.472;2023-12-22T10:51:34;9.22;;;6.09;;
66669;SDS011;53568;52.164;4.472;2023-12-22T10:53:59;9.99;;;6.46;;
66669;SDS011;53568;52.164;4.472;2023-12-22T10:56:25;10.56;;;6.78;;
66669;SDS011;53568;52.164;4.472;2023-12-22T10:58:51;9.50;;;6.01;;
66669;SDS011;53568;52.164;4.472;2023-12-22T11:01:18;9.50;;;5.97;;
66669;SDS011;53568;52.164;4.472;2023-12-22T11:03:48;9.63;;;6.12;;
66669;SDS011;53568;52.164;4.472;2023-12-22T11:06:16;8.61;;;5.47;;
66669;SDS011;53568;52.164;4.472;2023-12-22T11:08:45;9.98;;;6.31;;
66669;SDS011;53568;52.164;4.472;2023-12-22T11:11:24;9.68;;;6.17;;
66669;SDS011;53568;52.164;4.472;2023-12-22T11:13:56;9.36;;;5.92;;
66669;SDS011;53568;52.164;4.472;2023-12-22T11:16:23;9.19;;;5.81;;
66669;SDS011;53568;52.164;4.472;2023-12-22T11:18:51;10.53;;;6.60;;
66669;SDS011;53568;52.164;4.472;2023-12-22T11:21:22;8.95;;;5.70;;
66669;SDS011;53568;52.164;4.472;2023-12-22T11:23:50;9.45;;;6.06;;
66669;SDS011;53568;52.164;4.472;2023-12-22T11:26:20;10.33;;;6.49;;
66669;SDS011;53568;52.164;4.472;2023-12-22T11:28:48;9.36;;;5.88;;
66669;SDS011;53568;52.164;4.472;2023-12-22T11:31:15;9.37;;;5.82;;
66669;SDS011;53568;52.164;4.472;2023-12-22T11:33:46;10.96;;;6.79;;
66669;SDS011;53568;52.164;4.472;2023-12-22T11:36:13;10.75;;;6.66;;
66669;SDS011;53568;52.164;4.472;2023-12-22T11:38:41;10.74;;;6.59;;
66669;SDS011;53568;52.164;4.472;2023-12-22T11:41:27;12.55;;;7.76;;
66669;SDS011;53568;52.164;4.472;2023-12-22T11:43:57;10.70;;;6.74;;
66669;SDS011;53568;52.164;4.472;2023-12-22T11:46:24;10.40;;;6.65;;
66669;SDS011;53568;52.164;4.472;2023-12-22T11:48:51;9.27;;;5.90;;
66669;SDS011;53568;52.164;4.472;2023-12-22T11:51:18;10.04;;;6.38;;
66669;SDS011;53568;52.164;4.472;2023-12-22T11:53:44;9.89;;;6.28;;
66669;SDS011;53568;52.164;4.472;2023-12-22T11:56:11;9.62;;;6.15;;
66669;SDS011;53568;52.164;4.472;2023-12-22T11:58:38;10.48;;;6.55;;
66669;SDS011;53568;52.164;4.472;2023-12-22T12:01:18;11.45;;;7.05;;
66669;SDS011;53568;52.164;4.472;2023-12-22T12:08:55;9.55;;;5.91;;
66669;SDS011;53568;52.164;4.472;2023-12-22T12:11:22;9.94;;;6.19;;
66669;SDS011;53568;52.164;4.472;2023-12-22T12:13:49;9.30;;;5.84;;
66669;SDS011;53568;52.164;4.472;2023-12-22T12:16:18;10.27;;;6.47;;
66669;SDS011;53568;52.164;4.472;2023-12-22T12:18:48;11.00;;;6.89;;
66669;SDS011;53568;52.164;4.472;2023-12-22T12:21:15;11.79;;;7.18;;
66669;SDS011;53568;52.164;4.472;2023-12-22T12:23:41;11.62;;;7.02;;
66669;SDS011;53568;52.164;4.472;2023-12-22T12:26:07;11.11;;;6.82;;
66669;SDS011;53568;52.164;4.472;2023-12-22T12:28:34;11.10;;;6.81;;
66669;SDS011;53568;52.164;4.472;2023-12-22T12:31:05;11.22;;;6.84;;
66669;SDS011;53568;52.164;4.472;2023-12-22T12:33:31;11.92;;;7.26;;
66669;SDS011;53568;52.164;4.472;2023-12-22T12:35:59;12.01;;;7.21;;
66669;SDS011;53568;52.164;4.472;2023-12-22T12:41:31;11.72;;;7.03;;
66669;SDS011;53568;52.164;4.472;2023-12-22T12:44:00;12.17;;;7.38;;
66669;SDS011;53568;52.164;4.472;2023-12-22T12:46:37;11.67;;;7.13;;
66669;SDS011;53568;52.164;4.472;2023-12-22T12:49:06;12.82;;;7.72;;
66669;SDS011;53568;52.164;4.472;2023-12-22T12:54:07;12.12;;;7.35;;
66669;SDS011;53568;52.164;4.472;2023-12-22T12:56:46;11.46;;;7.08;;
66669;SDS011;53568;52.164;4.472;2023-12-22T12:59:12;10.25;;;6.39;;
66669;SDS011;53568;52.164;4.472;2023-12-22T13:01:44;11.32;;;7.05;;
66669;SDS011;53568;52.164;4.472;2023-12-22T13:04:11;11.19;;;7.00;;
66669;SDS011;53568;52.164;4.472;2023-12-22T13:06:47;12.25;;;7.54;;
66669;SDS011;53568;52.164;4.472;2023-12-22T13:09:14;13.28;;;8.15;;
66669;SDS011;53568;52.164;4.472;2023-12-22T13:11:40;14.36;;;8.77;;
66669;SDS011;53568;52.164;4.472;2023-12-22T13:14:11;13.34;;;8.15;;
66669;SDS011;53568;52.164;4.472;2023-12-22T13:16:46;11.66;;;7.19;;
66669;SDS011;53568;52.164;4.472;2023-12-22T13:19:12;13.95;;;8.49;;
66669;SDS011;53568;52.164;4.472;2023-12-22T13:21:38;11.50;;;7.11;;
66669;SDS011;53568;52.164;4.472;2023-12-22T13:26:39;11.44;;;7.13;;
66669;SDS011;53568;52.164;4.472;2023-12-22T13:29:06;11.44;;;7.06;;
66669;SDS011;53568;52.164;4.472;2023-12-22T13:31:33;12.18;;;7.52;;
66669;SDS011;53568;52.164;4.472;2023-12-22T13:34:01;12.21;;;7.60;;
66669;SDS011;53568;52.164;4.472;2023-12-22T13:36:27;11.32;;;7.10;;
66669;SDS011;53568;52.164;4.472;2023-12-22T13:38:52;11.92;;;7.43;;
66669;SDS011;53568;52.164;4.472;2023-12-22T13:41:18;11.86;;;7.37;;
66669;SDS011;53568;52.164;4.472;2023-12-22T13:43:45;13.69;;;8.21;;
66669;SDS011;53568;52.164;4.472;2023-12-22T13:46:12;13.30;;;8.04;;
66669;SDS011;53568;52.164;4.472;2023-12-22T13:48:41;12.69;;;7.78;;
66669;SDS011;53568;52.164;4.472;2023-12-22T13:51:06;12.95;;;7.78;;
66669;SDS011;53568;52.164;4.472;2023-12-22T13:53:32;13.28;;;8.02;;
66669;SDS011;53568;52.164;4.472;2023-12-22T13:55:58;13.01;;;7.94;;
66669;SDS011;53568;52.164;4.472;2023-12-22T13:58:25;13.71;;;8.28;;
66669;SDS011;53568;52.164;4.472;2023-12-22T14:00:52;12.75;;;7.75;;
66669;SDS011;53568;52.164;4.472;2023-12-22T14:03:19;14.22;;;8.55;;
66669;SDS011;53568;52.164;4.472;2023-12-22T14:05:48;14.21;;;8.61;;
66669;SDS011;53568;52.164;4.472;2023-12-22T14:08:15;14.63;;;8.87;;
66669;SDS011;53568;52.164;4.472;2023-12-22T14:10:47;14.81;;;8.92;;
66669;SDS011;53568;52.164;4.472;2023-12-22T14:13:14;15.05;;;9.03;;
66669;SDS011;53568;52.164;4.472;2023-12-22T14:15:43;14.07;;;8.46;;
66669;SDS011;53568;52.164;4.472;2023-12-22T14:18:10;14.06;;;8.52;;
66669;SDS011;53568;52.164;4.472;2023-12-22T14:20:36;14.12;;;8.71;;
66669;SDS011;53568;52.164;4.472;2023-12-22T14:23:01;13.27;;;8.16;;
66669;SDS011;53568;52.164;4.472;2023-12-22T14:25:27;13.78;;;8.47;;
66669;SDS011;53568;52.164;4.472;2023-12-22T14:27:53;13.83;;;8.56;;
66669;SDS011;53568;52.164;4.472;2023-12-22T14:30:22;13.70;;;8.59;;
66669;SDS011;53568;52.164;4.472;2023-12-22T14:32:48;13.86;;;8.66;;
66669;SDS011;53568;52.164;4.472;2023-12-22T14:35:14;13.17;;;8.14;;
66669;SDS011;53568;52.164;4.472;2023-12-22T14:37:40;13.48;;;8.37;;
66669;SDS011;53568;52.164;4.472;2023-12-22T14:40:06;11.95;;;7.51;;
66669;SDS011;53568;52.164;4.472;2023-12-22T14:42:32;14.15;;;8.78;;
66669;SDS011;53568;52.164;4.472;2023-12-22T14:44:58;12.98;;;8.02;;
66669;SDS011;53568;52.164;4.472;2023-12-22T14:47:23;13.47;;;8.29;;
66669;SDS011;53568;52.164;4.472;2023-12-22T14:49:49;13.76;;;8.55;;
66669;SDS011;53568;52.164;4.472;2023-12-22T14:52:14;15.81;;;9.76;;
66669;SDS011;53568;52.164;4.472;2023-12-22T14:54:40;15.42;;;9.51;;
66669;SDS011;53568;52.164;4.472;2023-12-22T14:57:06;14.42;;;9.02;;
66669;SDS011;53568;52.164;4.472;2023-12-22T14:59:31;12.45;;;7.94;;